sensor_id;sensor_type;location;lat;lon;timestamp;temperature;humidity
13992;DHT22;7070;53.586;9.692;2022-11-11T00:02:16;13.40;81.90
13992;DHT22;7070;53.586;9.692;2022-11-11T00:04:43;13.40;81.80
13992;DHT22;7070;53.586;9.692;2022-11-11T00:07:10;13.40;81.90
13992;DHT22;7070;53.586;9.692;2022-11-11T00:09:36;13.40;82.60
13992;DHT22;7070;53.586;9.692;2022-11-11T00:12:05;13.40;81.90
13992;DHT22;7070;53.586;9.692;2022-11-11T00:14:32;13.40;82.00
13992;DHT22;7070;53.586;9.692;2022-11-11T00:16:59;13.40;82.00
13992;DHT22;7070;53.586;9.692;2022-11-11T00:19:48;13.40;82.10
13992;DHT22;7070;53.586;9.692;2022-11-11T00:22:33;13.40;82.20
13992;DHT22;7070;53.586;9.692;2022-11-11T00:25:17;13.40;82.20
13992;DHT22;7070;53.586;9.692;2022-11-11T00:27:46;13.40;82.30
13992;DHT22;7070;53.586;9.692;2022-11-11T00:30:13;13.40;82.40
13992;DHT22;7070;53.586;9.692;2022-11-11T00:32:40;13.40;82.30
13992;DHT22;7070;53.586;9.692;2022-11-11T00:35:08;13.40;82.50
13992;DHT22;7070;53.586;9.692;2022-11-11T00:37:52;13.40;82.50
13992;DHT22;7070;53.586;9.692;2022-11-11T00:40:19;13.40;82.60
13992;DHT22;7070;53.586;9.692;2022-11-11T00:42:47;13.40;82.60
13992;DHT22;7070;53.586;9.692;2022-11-11T00:45:14;13.40;82.70
13992;DHT22;7070;53.586;9.692;2022-11-11T00:47:41;13.40;82.70
13992;DHT22;7070;53.586;9.692;2022-11-11T00:50:27;13.40;82.70
13992;DHT22;7070;53.586;9.692;2022-11-11T00:53:13;13.40;82.70
13992;DHT22;7070;53.586;9.692;2022-11-11T00:55:40;13.40;82.70
13992;DHT22;7070;53.586;9.692;2022-11-11T00:58:08;13.40;82.80
13992;DHT22;7070;53.586;9.692;2022-11-11T01:00:35;13.40;82.70
13992;DHT22;7070;53.586;9.692;2022-11-11T01:03:02;13.40;82.70
13992;DHT22;7070;53.586;9.692;2022-11-11T01:05:29;13.40;82.80
13992;DHT22;7070;53.586;9.692;2022-11-11T01:07:56;13.40;82.70
13992;DHT22;7070;53.586;9.692;2022-11-11T01:10:23;13.40;82.70
13992;DHT22;7070;53.586;9.692;2022-11-11T01:13:13;13.50;82.80
13992;DHT22;7070;53.586;9.692;2022-11-11T01:15:42;13.50;82.80
13992;DHT22;7070;53.586;9.692;2022-11-11T01:18:10;13.50;82.80
13992;DHT22;7070;53.586;9.692;2022-11-11T01:20:38;13.50;82.80
13992;DHT22;7070;53.586;9.692;2022-11-11T01:23:07;13.40;82.80
13992;DHT22;7070;53.586;9.692;2022-11-11T01:25:34;13.50;82.80
13992;DHT22;7070;53.586;9.692;2022-11-11T01:28:01;13.40;82.80
13992;DHT22;7070;53.586;9.692;2022-11-11T01:30:31;13.40;82.70
13992;DHT22;7070;53.586;9.692;2022-11-11T01:32:58;13.40;83.30
13992;DHT22;7070;53.586;9.692;2022-11-11T01:35:25;13.50;82.90
13992;DHT22;7070;53.586;9.692;2022-11-11T01:37:52;13.50;82.90
13992;DHT22;7070;53.586;9.692;2022-11-11T01:40:19;13.40;82.90
13992;DHT22;7070;53.586;9.692;2022-11-11T01:42:47;13.50;82.80
13992;DHT22;7070;53.586;9.692;2022-11-11T01:45:52;13.50;82.80
13992;DHT22;7070;53.586;9.692;2022-11-11T01:48:23;13.50;83.00
13992;DHT22;7070;53.586;9.692;2022-11-11T01:51:14;13.50;82.80
13992;DHT22;7070;53.586;9.692;2022-11-11T01:53:45;13.50;82.90
13992;DHT22;7070;53.586;9.692;2022-11-11T01:56:13;13.50;82.80
13992;DHT22;7070;53.586;9.692;2022-11-11T01:58:40;13.50;82.90
13992;DHT22;7070;53.586;9.692;2022-11-11T02:01:08;13.50;83.00
13992;DHT22;7070;53.586;9.692;2022-11-11T02:03:39;13.50;82.90
13992;DHT22;7070;53.586;9.692;2022-11-11T02:06:27;13.50;82.80
13992;DHT22;7070;53.586;9.692;2022-11-11T02:08:54;13.50;82.80
13992;DHT22;7070;53.586;9.692;2022-11-11T02:11:23;13.50;82.90
13992;DHT22;7070;53.586;9.692;2022-11-11T02:14:04;13.50;82.90
13992;DHT22;7070;53.586;9.692;2022-11-11T02:16:46;13.40;82.90
13992;DHT22;7070;53.586;9.692;2022-11-11T02:19:16;13.50;83.30
13992;DHT22;7070;53.586;9.692;2022-11-11T02:21:48;13.50;83.00
13992;DHT22;7070;53.586;9.692;2022-11-11T02:24:20;13.50;83.10
13992;DHT22;7070;53.586;9.692;2022-11-11T02:26:48;13.40;83.00
13992;DHT22;7070;53.586;9.692;2022-11-11T02:29:17;13.50;83.20
13992;DHT22;7070;53.586;9.692;2022-11-11T02:31:44;13.50;83.10
13992;DHT22;7070;53.586;9.692;2022-11-11T02:34:11;13.50;83.00
13992;DHT22;7070;53.586;9.692;2022-11-11T02:36:39;13.50;83.20
13992;DHT22;7070;53.586;9.692;2022-11-11T02:39:06;13.50;83.10
13992;DHT22;7070;53.586;9.692;2022-11-11T02:41:34;13.50;83.10
13992;DHT22;7070;53.586;9.692;2022-11-11T02:44:19;13.40;83.00
13992;DHT22;7070;53.586;9.692;2022-11-11T02:46:45;13.40;83.00
13992;DHT22;7070;53.586;9.692;2022-11-11T02:49:12;13.40;83.10
13992;DHT22;7070;53.586;9.692;2022-11-11T02:51:39;13.40;83.10
13992;DHT22;7070;53.586;9.692;2022-11-11T02:54:06;13.40;83.10
13992;DHT22;7070;53.586;9.692;2022-11-11T02:56:34;13.40;83.10
13992;DHT22;7070;53.586;9.692;2022-11-11T02:59:18;13.40;83.30
13992;DHT22;7070;53.586;9.692;2022-11-11T03:01:46;13.30;83.10
13992;DHT22;7070;53.586;9.692;2022-11-11T03:04:13;13.30;83.20
13992;DHT22;7070;53.586;9.692;2022-11-11T03:06:40;13.30;83.10
13992;DHT22;7070;53.586;9.692;2022-11-11T03:09:07;13.20;83.20
13992;DHT22;7070;53.586;9.692;2022-11-11T03:11:35;13.20;83.30
13992;DHT22;7070;53.586;9.692;2022-11-11T03:14:03;13.20;83.30
13992;DHT22;7070;53.586;9.692;2022-11-11T03:16:30;13.20;83.30
13992;DHT22;7070;53.586;9.692;2022-11-11T03:19:26;13.20;83.50
13992;DHT22;7070;53.586;9.692;2022-11-11T03:21:53;13.20;83.50
13992;DHT22;7070;53.586;9.692;2022-11-11T03:24:20;13.20;83.50
13992;DHT22;7070;53.586;9.692;2022-11-11T03:26:48;13.20;83.60
13992;DHT22;7070;53.586;9.692;2022-11-11T03:29:15;13.10;84.20
13992;DHT22;7070;53.586;9.692;2022-11-11T03:31:42;13.10;83.50
13992;DHT22;7070;53.586;9.692;2022-11-11T03:34:08;13.10;83.40
13992;DHT22;7070;53.586;9.692;2022-11-11T03:36:44;13.10;83.60
13992;DHT22;7070;53.586;9.692;2022-11-11T03:39:28;13.10;83.60
13992;DHT22;7070;53.586;9.692;2022-11-11T03:41:57;13.10;83.60
13992;DHT22;7070;53.586;9.692;2022-11-11T03:44:24;13.00;83.50
13992;DHT22;7070;53.586;9.692;2022-11-11T03:46:53;13.00;83.70
13992;DHT22;7070;53.586;9.692;2022-11-11T03:49:20;13.00;83.80
13992;DHT22;7070;53.586;9.692;2022-11-11T03:51:47;13.00;83.80
13992;DHT22;7070;53.586;9.692;2022-11-11T03:54:13;13.00;83.80
13992;DHT22;7070;53.586;9.692;2022-11-11T03:56:40;13.00;83.80
13992;DHT22;7070;53.586;9.692;2022-11-11T03:59:08;12.90;83.60
13992;DHT22;7070;53.586;9.692;2022-11-11T04:01:35;12.90;83.50
13992;DHT22;7070;53.586;9.692;2022-11-11T04:04:20;12.90;83.70
13992;DHT22;7070;53.586;9.692;2022-11-11T04:07:04;12.90;83.80
13992;DHT22;7070;53.586;9.692;2022-11-11T04:09:48;12.90;83.90
13992;DHT22;7070;53.586;9.692;2022-11-11T04:12:34;12.90;83.70
13992;DHT22;7070;53.586;9.692;2022-11-11T04:15:24;12.80;83.80
13992;DHT22;7070;53.586;9.692;2022-11-11T04:18:08;12.80;83.90
13992;DHT22;7070;53.586;9.692;2022-11-11T04:20:35;12.80;83.90
13992;DHT22;7070;53.586;9.692;2022-11-11T04:23:19;12.80;84.00
13992;DHT22;7070;53.586;9.692;2022-11-11T04:25:46;12.80;84.00
13992;DHT22;7070;53.586;9.692;2022-11-11T04:28:15;12.80;84.10
13992;DHT22;7070;53.586;9.692;2022-11-11T04:31:01;12.70;83.90
13992;DHT22;7070;53.586;9.692;2022-11-11T04:33:27;12.70;83.90
13992;DHT22;7070;53.586;9.692;2022-11-11T04:35:53;12.80;84.00
13992;DHT22;7070;53.586;9.692;2022-11-11T04:38:20;12.70;83.90
13992;DHT22;7070;53.586;9.692;2022-11-11T04:41:04;12.70;84.00
13992;DHT22;7070;53.586;9.692;2022-11-11T04:43:33;12.70;84.00
13992;DHT22;7070;53.586;9.692;2022-11-11T04:46:23;12.70;84.00
13992;DHT22;7070;53.586;9.692;2022-11-11T04:48:48;12.60;83.90
13992;DHT22;7070;53.586;9.692;2022-11-11T04:51:15;12.60;83.90
13992;DHT22;7070;53.586;9.692;2022-11-11T04:53:42;12.70;84.00
13992;DHT22;7070;53.586;9.692;2022-11-11T04:56:09;12.60;83.90
13992;DHT22;7070;53.586;9.692;2022-11-11T04:58:53;12.60;83.90
13992;DHT22;7070;53.586;9.692;2022-11-11T05:01:35;12.60;83.90
13992;DHT22;7070;53.586;9.692;2022-11-11T05:04:20;12.60;83.90
13992;DHT22;7070;53.586;9.692;2022-11-11T05:06:47;12.50;83.70
13992;DHT22;7070;53.586;9.692;2022-11-11T05:09:36;12.50;83.80
13992;DHT22;7070;53.586;9.692;2022-11-11T05:12:04;12.50;83.90
13992;DHT22;7070;53.586;9.692;2022-11-11T05:14:31;12.50;84.00
13992;DHT22;7070;53.586;9.692;2022-11-11T05:17:17;12.50;83.90
13992;DHT22;7070;53.586;9.692;2022-11-11T05:20:01;12.50;83.90
13992;DHT22;7070;53.586;9.692;2022-11-11T05:22:45;12.40;83.70
13992;DHT22;7070;53.586;9.692;2022-11-11T05:25:12;12.40;83.50
13992;DHT22;7070;53.586;9.692;2022-11-11T05:27:50;12.40;83.40
13992;DHT22;7070;53.586;9.692;2022-11-11T05:30:18;12.30;83.20
13992;DHT22;7070;53.586;9.692;2022-11-11T05:32:46;12.30;83.20
13992;DHT22;7070;53.586;9.692;2022-11-11T05:35:14;12.20;83.10
13992;DHT22;7070;53.586;9.692;2022-11-11T05:37:42;12.20;83.10
13992;DHT22;7070;53.586;9.692;2022-11-11T05:40:10;12.20;83.30
13992;DHT22;7070;53.586;9.692;2022-11-11T05:42:40;12.20;83.30
13992;DHT22;7070;53.586;9.692;2022-11-11T05:45:08;12.20;83.30
13992;DHT22;7070;53.586;9.692;2022-11-11T05:47:35;12.20;83.40
13992;DHT22;7070;53.586;9.692;2022-11-11T05:50:04;12.10;83.40
13992;DHT22;7070;53.586;9.692;2022-11-11T05:52:31;12.10;83.40
13992;DHT22;7070;53.586;9.692;2022-11-11T05:54:58;12.10;83.40
13992;DHT22;7070;53.586;9.692;2022-11-11T05:57:25;12.10;83.40
13992;DHT22;7070;53.586;9.692;2022-11-11T05:59:51;12.10;83.30
13992;DHT22;7070;53.586;9.692;2022-11-11T06:02:18;12.00;83.20
13992;DHT22;7070;53.586;9.692;2022-11-11T06:04:45;12.10;83.50
13992;DHT22;7070;53.586;9.692;2022-11-11T06:07:14;12.00;83.50
13992;DHT22;7070;53.586;9.692;2022-11-11T06:09:41;12.10;83.70
13992;DHT22;7070;53.586;9.692;2022-11-11T06:12:07;12.00;83.60
13992;DHT22;7070;53.586;9.692;2022-11-11T06:14:34;12.00;83.70
13992;DHT22;7070;53.586;9.692;2022-11-11T06:17:01;11.90;83.60
13992;DHT22;7070;53.586;9.692;2022-11-11T06:19:28;12.00;83.80
13992;DHT22;7070;53.586;9.692;2022-11-11T06:21:55;11.90;83.80
13992;DHT22;7070;53.586;9.692;2022-11-11T06:24:27;11.90;83.80
13992;DHT22;7070;53.586;9.692;2022-11-11T06:26:54;11.90;83.80
13992;DHT22;7070;53.586;9.692;2022-11-11T06:29:20;12.00;84.00
13992;DHT22;7070;53.586;9.692;2022-11-11T06:31:47;11.90;83.90
13992;DHT22;7070;53.586;9.692;2022-11-11T06:34:14;11.80;83.90
13992;DHT22;7070;53.586;9.692;2022-11-11T06:36:41;11.90;84.00
13992;DHT22;7070;53.586;9.692;2022-11-11T06:39:08;11.90;84.10
13992;DHT22;7070;53.586;9.692;2022-11-11T06:41:36;11.80;84.20
13992;DHT22;7070;53.586;9.692;2022-11-11T06:44:03;11.90;84.30
13992;DHT22;7070;53.586;9.692;2022-11-11T06:46:30;11.90;84.40
13992;DHT22;7070;53.586;9.692;2022-11-11T06:48:57;11.90;84.50
13992;DHT22;7070;53.586;9.692;2022-11-11T06:51:24;11.90;84.50
13992;DHT22;7070;53.586;9.692;2022-11-11T06:53:51;12.00;84.70
13992;DHT22;7070;53.586;9.692;2022-11-11T06:56:18;11.90;84.70
13992;DHT22;7070;53.586;9.692;2022-11-11T06:58:46;12.00;84.80
13992;DHT22;7070;53.586;9.692;2022-11-11T07:01:13;12.00;85.00
13992;DHT22;7070;53.586;9.692;2022-11-11T07:03:40;12.00;85.00
13992;DHT22;7070;53.586;9.692;2022-11-11T07:06:07;12.00;85.10
13992;DHT22;7070;53.586;9.692;2022-11-11T07:08:34;12.00;85.10
13992;DHT22;7070;53.586;9.692;2022-11-11T07:11:00;13.70;86.90
13992;DHT22;7070;53.586;9.692;2022-11-11T07:13:27;12.00;85.20
13992;DHT22;7070;53.586;9.692;2022-11-11T07:15:56;12.00;85.30
13992;DHT22;7070;53.586;9.692;2022-11-11T07:18:22;12.00;85.20
13992;DHT22;7070;53.586;9.692;2022-11-11T07:20:49;12.00;85.30
13992;DHT22;7070;53.586;9.692;2022-11-11T07:23:16;12.00;85.20
13992;DHT22;7070;53.586;9.692;2022-11-11T07:25:43;12.10;85.20
13992;DHT22;7070;53.586;9.692;2022-11-11T07:28:10;12.00;85.10
13992;DHT22;7070;53.586;9.692;2022-11-11T07:30:37;12.00;84.90
13992;DHT22;7070;53.586;9.692;2022-11-11T07:33:07;12.00;85.00
13992;DHT22;7070;53.586;9.692;2022-11-11T07:35:33;12.10;85.10
13992;DHT22;7070;53.586;9.692;2022-11-11T07:38:00;12.10;85.10
13992;DHT22;7070;53.586;9.692;2022-11-11T07:40:27;12.10;85.00
13992;DHT22;7070;53.586;9.692;2022-11-11T07:42:54;12.10;85.60
13992;DHT22;7070;53.586;9.692;2022-11-11T07:45:21;12.10;84.90
13992;DHT22;7070;53.586;9.692;2022-11-11T07:47:48;12.10;84.80
13992;DHT22;7070;53.586;9.692;2022-11-11T07:50:16;12.10;85.50
13992;DHT22;7070;53.586;9.692;2022-11-11T07:52:47;12.10;84.80
13992;DHT22;7070;53.586;9.692;2022-11-11T07:55:14;12.10;84.70
13992;DHT22;7070;53.586;9.692;2022-11-11T07:57:41;12.10;84.70
13992;DHT22;7070;53.586;9.692;2022-11-11T08:00:09;12.10;84.70
13992;DHT22;7070;53.586;9.692;2022-11-11T08:02:36;12.10;84.60
13992;DHT22;7070;53.586;9.692;2022-11-11T08:05:03;12.10;84.70
13992;DHT22;7070;53.586;9.692;2022-11-11T08:07:33;12.10;84.70
13992;DHT22;7070;53.586;9.692;2022-11-11T08:09:59;12.10;84.60
13992;DHT22;7070;53.586;9.692;2022-11-11T08:12:26;12.10;84.60
13992;DHT22;7070;53.586;9.692;2022-11-11T08:15:11;12.10;84.60
13992;DHT22;7070;53.586;9.692;2022-11-11T08:17:38;12.10;84.70
13992;DHT22;7070;53.586;9.692;2022-11-11T08:20:07;12.10;84.80
13992;DHT22;7070;53.586;9.692;2022-11-11T08:22:39;12.10;84.80
13992;DHT22;7070;53.586;9.692;2022-11-11T08:25:08;12.10;84.80
13992;DHT22;7070;53.586;9.692;2022-11-11T08:27:35;12.10;84.90
13992;DHT22;7070;53.586;9.692;2022-11-11T08:30:03;12.20;85.00
13992;DHT22;7070;53.586;9.692;2022-11-11T08:32:31;12.20;85.00
13992;DHT22;7070;53.586;9.692;2022-11-11T08:34:58;12.20;85.00
13992;DHT22;7070;53.586;9.692;2022-11-11T08:37:24;12.20;85.00
13992;DHT22;7070;53.586;9.692;2022-11-11T08:39:53;12.30;85.30
13992;DHT22;7070;53.586;9.692;2022-11-11T08:42:19;12.40;85.30
13992;DHT22;7070;53.586;9.692;2022-11-11T08:44:46;12.30;85.20
13992;DHT22;7070;53.586;9.692;2022-11-11T08:47:13;12.40;85.20
13992;DHT22;7070;53.586;9.692;2022-11-11T08:49:40;12.40;85.20
13992;DHT22;7070;53.586;9.692;2022-11-11T08:52:07;12.40;85.20
13992;DHT22;7070;53.586;9.692;2022-11-11T08:54:34;12.50;85.20
13992;DHT22;7070;53.586;9.692;2022-11-11T08:57:03;12.50;85.20
13992;DHT22;7070;53.586;9.692;2022-11-11T08:59:29;12.50;85.20
13992;DHT22;7070;53.586;9.692;2022-11-11T09:01:56;12.60;85.30
13992;DHT22;7070;53.586;9.692;2022-11-11T09:04:23;12.60;85.30
13992;DHT22;7070;53.586;9.692;2022-11-11T09:06:50;12.70;85.30
13992;DHT22;7070;53.586;9.692;2022-11-11T09:09:17;12.70;85.30
13992;DHT22;7070;53.586;9.692;2022-11-11T09:11:44;12.70;85.40
13992;DHT22;7070;53.586;9.692;2022-11-11T09:14:12;12.80;85.40
13992;DHT22;7070;53.586;9.692;2022-11-11T09:16:39;12.80;85.30
13992;DHT22;7070;53.586;9.692;2022-11-11T09:19:05;12.90;85.30
13992;DHT22;7070;53.586;9.692;2022-11-11T09:21:32;13.00;85.30
13992;DHT22;7070;53.586;9.692;2022-11-11T09:23:59;13.00;85.20
13992;DHT22;7070;53.586;9.692;2022-11-11T09:26:26;13.10;85.20
13992;DHT22;7070;53.586;9.692;2022-11-11T09:28:53;13.10;85.00
13992;DHT22;7070;53.586;9.692;2022-11-11T09:31:21;13.10;84.80
13992;DHT22;7070;53.586;9.692;2022-11-11T09:33:48;13.20;84.80
13992;DHT22;7070;53.586;9.692;2022-11-11T09:36:15;13.20;84.80
13992;DHT22;7070;53.586;9.692;2022-11-11T09:38:42;13.20;84.70
13992;DHT22;7070;53.586;9.692;2022-11-11T09:41:17;13.20;84.70
13992;DHT22;7070;53.586;9.692;2022-11-11T09:43:53;13.30;84.70
13992;DHT22;7070;53.586;9.692;2022-11-11T09:46:35;13.30;84.60
13992;DHT22;7070;53.586;9.692;2022-11-11T09:49:17;13.30;85.20
13992;DHT22;7070;53.586;9.692;2022-11-11T09:51:54;13.40;84.60
13992;DHT22;7070;53.586;9.692;2022-11-11T09:54:29;13.40;84.40
13992;DHT22;7070;53.586;9.692;2022-11-11T09:56:59;13.40;85.20
13992;DHT22;7070;53.586;9.692;2022-11-11T09:59:31;13.40;84.40
13992;DHT22;7070;53.586;9.692;2022-11-11T10:02:02;13.50;84.50
13992;DHT22;7070;53.586;9.692;2022-11-11T10:04:34;13.50;84.40
13992;DHT22;7070;53.586;9.692;2022-11-11T10:07:09;13.60;84.50
13992;DHT22;7070;53.586;9.692;2022-11-11T10:09:40;13.60;84.40
13992;DHT22;7070;53.586;9.692;2022-11-11T10:12:12;13.70;84.40
13992;DHT22;7070;53.586;9.692;2022-11-11T10:14:42;13.80;84.40
13992;DHT22;7070;53.586;9.692;2022-11-11T10:17:24;13.80;84.20
13992;DHT22;7070;53.586;9.692;2022-11-11T10:20:03;13.90;84.10
13992;DHT22;7070;53.586;9.692;2022-11-11T10:22:35;13.90;84.00
13992;DHT22;7070;53.586;9.692;2022-11-11T10:25:19;13.90;84.30
13992;DHT22;7070;53.586;9.692;2022-11-11T10:27:50;14.00;84.00
13992;DHT22;7070;53.586;9.692;2022-11-11T10:30:20;14.10;83.90
13992;DHT22;7070;53.586;9.692;2022-11-11T10:32:53;14.20;84.60
13992;DHT22;7070;53.586;9.692;2022-11-11T10:35:23;14.20;83.70
13992;DHT22;7070;53.586;9.692;2022-11-11T10:37:58;14.30;83.50
13992;DHT22;7070;53.586;9.692;2022-11-11T10:40:31;14.40;83.60
13992;DHT22;7070;53.586;9.692;2022-11-11T10:43:00;14.40;84.00
13992;DHT22;7070;53.586;9.692;2022-11-11T10:45:30;14.50;83.30
13992;DHT22;7070;53.586;9.692;2022-11-11T10:48:06;14.50;83.10
13992;DHT22;7070;53.586;9.692;2022-11-11T10:50:36;14.60;83.10
13992;DHT22;7070;53.586;9.692;2022-11-11T10:53:11;14.60;82.90
13992;DHT22;7070;53.586;9.692;2022-11-11T10:55:44;14.70;83.00
13992;DHT22;7070;53.586;9.692;2022-11-11T10:58:17;14.70;83.10
13992;DHT22;7070;53.586;9.692;2022-11-11T11:00:48;14.80;83.30
13992;DHT22;7070;53.586;9.692;2022-11-11T11:03:23;14.80;83.40
13992;DHT22;7070;53.586;9.692;2022-11-11T11:05:56;14.80;84.00
13992;DHT22;7070;53.586;9.692;2022-11-11T11:08:28;14.90;83.20
13992;DHT22;7070;53.586;9.692;2022-11-11T11:10:57;14.90;82.90
13992;DHT22;7070;53.586;9.692;2022-11-11T11:13:30;14.90;82.80
13992;DHT22;7070;53.586;9.692;2022-11-11T11:16:02;14.90;82.60
13992;DHT22;7070;53.586;9.692;2022-11-11T11:18:31;14.90;82.40
13992;DHT22;7070;53.586;9.692;2022-11-11T11:20:59;15.00;82.40
13992;DHT22;7070;53.586;9.692;2022-11-11T11:23:37;14.90;82.40
13992;DHT22;7070;53.586;9.692;2022-11-11T11:26:04;14.90;82.20
13992;DHT22;7070;53.586;9.692;2022-11-11T11:28:32;15.00;82.30
13992;DHT22;7070;53.586;9.692;2022-11-11T11:31:01;15.00;82.30
13992;DHT22;7070;53.586;9.692;2022-11-11T11:33:49;15.00;82.20
13992;DHT22;7070;53.586;9.692;2022-11-11T11:36:17;15.00;82.20
13992;DHT22;7070;53.586;9.692;2022-11-11T11:38:45;15.00;82.10
13992;DHT22;7070;53.586;9.692;2022-11-11T11:41:15;15.00;82.10
13992;DHT22;7070;53.586;9.692;2022-11-11T11:43:43;15.00;82.10
13992;DHT22;7070;53.586;9.692;2022-11-11T11:46:19;15.00;82.00
13992;DHT22;7070;53.586;9.692;2022-11-11T11:49:06;15.00;82.00
13992;DHT22;7070;53.586;9.692;2022-11-11T11:51:42;15.00;82.10
13992;DHT22;7070;53.586;9.692;2022-11-11T11:54:19;15.00;81.90
13992;DHT22;7070;53.586;9.692;2022-11-11T11:56:53;15.00;82.00
13992;DHT22;7070;53.586;9.692;2022-11-11T11:59:27;15.00;81.90
13992;DHT22;7070;53.586;9.692;2022-11-11T12:02:01;15.00;81.90
13992;DHT22;7070;53.586;9.692;2022-11-11T12:04:51;15.00;81.70
13992;DHT22;7070;53.586;9.692;2022-11-11T12:10:33;14.90;81.40
13992;DHT22;7070;53.586;9.692;2022-11-11T12:13:06;15.00;81.50
13992;DHT22;7070;53.586;9.692;2022-11-11T12:15:38;14.90;81.50
13992;DHT22;7070;53.586;9.692;2022-11-11T12:18:30;14.90;82.20
13992;DHT22;7070;53.586;9.692;2022-11-11T12:21:07;14.80;81.40
13992;DHT22;7070;53.586;9.692;2022-11-11T12:26:35;14.80;82.10
13992;DHT22;7070;53.586;9.692;2022-11-11T12:29:25;14.70;81.30
13992;DHT22;7070;53.586;9.692;2022-11-11T12:32:06;14.80;81.40
13992;DHT22;7070;53.586;9.692;2022-11-11T12:34:55;14.80;81.60
13992;DHT22;7070;53.586;9.692;2022-11-11T12:37:33;14.70;81.50
13992;DHT22;7070;53.586;9.692;2022-11-11T12:40:14;14.70;81.60
13992;DHT22;7070;53.586;9.692;2022-11-11T12:42:57;14.70;81.50
13992;DHT22;7070;53.586;9.692;2022-11-11T12:45:33;14.70;81.40
13992;DHT22;7070;53.586;9.692;2022-11-11T12:48:05;14.60;81.20
13992;DHT22;7070;53.586;9.692;2022-11-11T12:50:42;14.60;81.40
13992;DHT22;7070;53.586;9.692;2022-11-11T12:53:21;14.60;81.40
13992;DHT22;7070;53.586;9.692;2022-11-11T12:55:57;14.60;81.40
13992;DHT22;7070;53.586;9.692;2022-11-11T12:58:32;14.60;81.40
13992;DHT22;7070;53.586;9.692;2022-11-11T13:01:13;14.60;82.10
13992;DHT22;7070;53.586;9.692;2022-11-11T13:04:13;14.50;81.20
13992;DHT22;7070;53.586;9.692;2022-11-11T13:07:05;14.50;81.30
13992;DHT22;7070;53.586;9.692;2022-11-11T13:09:47;14.40;81.10
13992;DHT22;7070;53.586;9.692;2022-11-11T13:12:20;14.40;81.20
13992;DHT22;7070;53.586;9.692;2022-11-11T13:14:56;14.40;81.20
13992;DHT22;7070;53.586;9.692;2022-11-11T13:17:24;14.30;80.90
13992;DHT22;7070;53.586;9.692;2022-11-11T13:19:53;14.30;81.00
13992;DHT22;7070;53.586;9.692;2022-11-11T13:22:23;14.30;81.10
13992;DHT22;7070;53.586;9.692;2022-11-11T13:24:53;14.30;81.00
13992;DHT22;7070;53.586;9.692;2022-11-11T13:27:27;14.20;80.90
13992;DHT22;7070;53.586;9.692;2022-11-11T13:30:25;14.20;81.00
13992;DHT22;7070;53.586;9.692;2022-11-11T13:32:59;14.10;81.00
13992;DHT22;7070;53.586;9.692;2022-11-11T13:35:30;14.10;81.10
13992;DHT22;7070;53.586;9.692;2022-11-11T13:37:58;14.10;81.10
13992;DHT22;7070;53.586;9.692;2022-11-11T13:40:36;14.10;81.00
13992;DHT22;7070;53.586;9.692;2022-11-11T13:43:05;14.00;80.90
13992;DHT22;7070;53.586;9.692;2022-11-11T13:45:41;14.00;80.90
13992;DHT22;7070;53.586;9.692;2022-11-11T13:48:19;14.00;81.00
13992;DHT22;7070;53.586;9.692;2022-11-11T13:50:47;14.00;81.00
13992;DHT22;7070;53.586;9.692;2022-11-11T13:53:24;13.90;80.90
13992;DHT22;7070;53.586;9.692;2022-11-11T13:56:00;13.90;81.00
13992;DHT22;7070;53.586;9.692;2022-11-11T13:58:32;13.90;81.10
13992;DHT22;7070;53.586;9.692;2022-11-11T14:01:03;13.90;81.10
13992;DHT22;7070;53.586;9.692;2022-11-11T14:03:34;13.90;81.10
13992;DHT22;7070;53.586;9.692;2022-11-11T14:06:36;13.90;81.10
13992;DHT22;7070;53.586;9.692;2022-11-11T14:09:04;13.90;81.20
13992;DHT22;7070;53.586;9.692;2022-11-11T14:11:34;13.90;81.10
13992;DHT22;7070;53.586;9.692;2022-11-11T14:17:10;13.80;81.20
13992;DHT22;7070;53.586;9.692;2022-11-11T14:19:38;13.80;81.10
13992;DHT22;7070;53.586;9.692;2022-11-11T14:22:28;13.70;81.20
13992;DHT22;7070;53.586;9.692;2022-11-11T14:25:13;13.70;81.20
13992;DHT22;7070;53.586;9.692;2022-11-11T14:27:45;13.70;81.20
13992;DHT22;7070;53.586;9.692;2022-11-11T14:30:28;13.70;81.20
13992;DHT22;7070;53.586;9.692;2022-11-11T14:33:00;13.70;81.30
13992;DHT22;7070;53.586;9.692;2022-11-11T14:35:36;13.70;81.40
13992;DHT22;7070;53.586;9.692;2022-11-11T14:41:40;13.60;81.70
13992;DHT22;7070;53.586;9.692;2022-11-11T14:44:40;13.60;81.70
13992;DHT22;7070;53.586;9.692;2022-11-11T14:47:18;13.60;81.70
13992;DHT22;7070;53.586;9.692;2022-11-11T14:49:50;13.60;81.80
13992;DHT22;7070;53.586;9.692;2022-11-11T14:52:25;13.60;81.80
13992;DHT22;7070;53.586;9.692;2022-11-11T14:55:03;13.60;81.80
13992;DHT22;7070;53.586;9.692;2022-11-11T14:57:35;13.60;81.90
13992;DHT22;7070;53.586;9.692;2022-11-11T15:00:10;13.50;81.90
13992;DHT22;7070;53.586;9.692;2022-11-11T15:02:46;13.50;82.00
13992;DHT22;7070;53.586;9.692;2022-11-11T15:05:20;13.50;81.90
13992;DHT22;7070;53.586;9.692;2022-11-11T15:08:06;13.50;82.10
13992;DHT22;7070;53.586;9.692;2022-11-11T15:11:01;13.50;82.10
13992;DHT22;7070;53.586;9.692;2022-11-11T15:13:59;13.60;82.30
13992;DHT22;7070;53.586;9.692;2022-11-11T15:16:41;13.50;82.50
13992;DHT22;7070;53.586;9.692;2022-11-11T15:19:24;13.50;82.50
13992;DHT22;7070;53.586;9.692;2022-11-11T15:22:03;13.50;83.30
13992;DHT22;7070;53.586;9.692;2022-11-11T15:24:39;13.50;82.60
13992;DHT22;7070;53.586;9.692;2022-11-11T15:27:18;13.50;82.70
13992;DHT22;7070;53.586;9.692;2022-11-11T15:30:08;13.50;82.80
13992;DHT22;7070;53.586;9.692;2022-11-11T15:32:45;13.40;82.80
13992;DHT22;7070;53.586;9.692;2022-11-11T15:35:33;13.50;83.00
13992;DHT22;7070;53.586;9.692;2022-11-11T15:38:03;13.50;83.00
13992;DHT22;7070;53.586;9.692;2022-11-11T15:40:40;13.40;83.00
13992;DHT22;7070;53.586;9.692;2022-11-11T15:43:13;13.40;83.10
13992;DHT22;7070;53.586;9.692;2022-11-11T15:45:41;13.40;83.10
13992;DHT22;7070;53.586;9.692;2022-11-11T15:48:16;13.40;83.20
13992;DHT22;7070;53.586;9.692;2022-11-11T15:50:44;13.40;83.40
13992;DHT22;7070;53.586;9.692;2022-11-11T15:53:13;13.40;83.30
13992;DHT22;7070;53.586;9.692;2022-11-11T15:55:40;13.30;83.30
13992;DHT22;7070;53.586;9.692;2022-11-11T15:58:08;13.40;83.40
13992;DHT22;7070;53.586;9.692;2022-11-11T16:00:37;13.30;83.30
13992;DHT22;7070;53.586;9.692;2022-11-11T16:03:04;13.30;83.50
13992;DHT22;7070;53.586;9.692;2022-11-11T16:05:33;13.30;83.50
13992;DHT22;7070;53.586;9.692;2022-11-11T16:08:03;13.30;83.50
13992;DHT22;7070;53.586;9.692;2022-11-11T16:10:32;13.30;83.50
13992;DHT22;7070;53.586;9.692;2022-11-11T16:13:02;13.30;83.50
13992;DHT22;7070;53.586;9.692;2022-11-11T16:15:36;13.30;83.70
13992;DHT22;7070;53.586;9.692;2022-11-11T16:18:11;13.30;83.70
13992;DHT22;7070;53.586;9.692;2022-11-11T16:20:43;13.30;83.60
13992;DHT22;7070;53.586;9.692;2022-11-11T16:23:15;13.20;83.70
13992;DHT22;7070;53.586;9.692;2022-11-11T16:25:45;13.30;83.80
13992;DHT22;7070;53.586;9.692;2022-11-11T16:28:13;13.20;83.80
13992;DHT22;7070;53.586;9.692;2022-11-11T16:30:41;13.20;83.90